Time;durP1;ratioP1;P1;durP2;ratioP2;P2;SDS_P1;SDS_P2;PMS_P1;PMS_P2;Temp;Humidity;BMP_temperature;BMP_pressure;BME280_temperature;BME280_humidity;BME280_pressure;Samples;Min_cycle;Max_cycle;Signal;HPM_P1;HPM_P2
2022/12/03 00:01:45;;;;;;;18.80;7.82;;;;;;;;;;6211456;23;20603;-92
2022/12/03 00:04:31;;;;;;;19.67;8.02;;;;;;;;;;6217948;23;20023;-91
2022/12/03 00:07:08;;;;;;;20.48;8.63;;;;;;;;;;6266553;23;20008;-92
2022/12/03 00:09:38;;;;;;;19.55;8.48;;;;;;;;;;6238176;23;20008;-91
2022/12/03 00:12:08;;;;;;;19.30;7.68;;;;;;;;;;6238812;23;20015;-91
2022/12/03 00:14:34;;;;;;;17.75;8.20;;;;;;;;;;6206246;23;20333;-92
2022/12/03 00:17:52;;;;;;;23.20;9.00;;;;;;;;;;6239976;23;20008;-92
2022/12/03 00:19:54;;;;;;;19.23;8.98;;;;;;;;;;6229144;22;20008;-92
2022/12/03 00:22:20;;;;;;;21.48;8.07;;;;;;;;;;6237296;23;20004;-91
2022/12/03 00:24:48;;;;;;;19.70;7.78;;;;;;;;;;6240129;23;20035;-92
2022/12/03 00:27:15;;;;;;;19.88;8.95;;;;;;;;;;6230270;23;20019;-91
2022/12/03 00:29:44;;;;;;;26.05;10.27;;;;;;;;;;6238904;23;20042;-92
2022/12/03 00:32:20;;;;;;;21.73;9.55;;;;;;;;;;6240390;23;20008;-93
2022/12/03 00:34:50;;;;;;;20.02;8.60;;;;;;;;;;6240237;23;20012;-93
2022/12/03 00:37:38;;;;;;;23.52;8.13;;;;;;;;;;6230604;23;20059;-93
2022/12/03 00:40:12;;;;;;;19.77;8.07;;;;;;;;;;6242622;23;20009;-92
2022/12/03 00:42:39;;;;;;;17.02;8.25;;;;;;;;;;6239113;23;20028;-93
2022/12/03 00:45:20;;;;;;;20.30;8.32;;;;;;;;;;6206000;23;20112;-91
2022/12/03 00:47:53;;;;;;;22.08;8.85;;;;;;;;;;6229209;23;20012;-93
2022/12/03 00:50:24;;;;;;;16.48;7.78;;;;;;;;;;6237479;23;20008;-93
2022/12/03 00:52:57;;;;;;;17.83;8.10;;;;;;;;;;6218302;23;20446;-92
2022/12/03 00:55:28;;;;;;;21.73;8.50;;;;;;;;;;6225127;23;20128;-92
2022/12/03 00:57:55;;;;;;;17.90;7.93;;;;;;;;;;6196336;23;20118;-91
2022/12/03 01:00:24;;;;;;;17.83;8.02;;;;;;;;;;6227184;23;20042;-92
2022/12/03 01:02:53;;;;;;;19.52;8.88;;;;;;;;;;6236697;23;20084;-92
2022/12/03 01:05:21;;;;;;;19.95;8.00;;;;;;;;;;6236722;23;20055;-91
2022/12/03 01:07:49;;;;;;;21.77;9.15;;;;;;;;;;6239478;23;20034;-92
2022/12/03 01:10:26;;;;;;;22.33;8.90;;;;;;;;;;6239801;23;19996;-92
2022/12/03 01:13:03;;;;;;;19.13;8.20;;;;;;;;;;6237991;23;20004;-93
2022/12/03 01:15:29;;;;;;;24.00;9.32;;;;;;;;;;6240990;23;20003;-92
2022/12/03 01:17:56;;;;;;;16.63;7.75;;;;;;;;;;6267488;23;20010;-93
2022/12/03 01:20:23;;;;;;;22.77;9.98;;;;;;;;;;6217553;22;20012;-92
2022/12/03 01:22:51;;;;;;;19.23;8.13;;;;;;;;;;6268063;22;20019;-92
2022/12/03 01:25:18;;;;;;;20.40;8.77;;;;;;;;;;6261484;23;19981;-93
2022/12/03 01:27:47;;;;;;;19.95;8.70;;;;;;;;;;6256880;23;19988;-91
2022/12/03 01:32:15;;;;;;;23.20;9.15;;;;;;;;;;6216121;23;20019;-92
2022/12/03 01:33:06;;;;;;;20.77;9.05;;;;;;;;;;6237864;23;20038;-92
2022/12/03 01:38:19;;;;;;;;;;;;;;;;;;6218779;23;20016;-91
2022/12/03 01:40:48;;;;;;;15.77;7.97;;;;;;;;;;6212852;23;19907;-91
2022/12/03 01:43:14;;;;;;;20.02;8.68;;;;;;;;;;6214473;23;20008;-93
2022/12/03 01:46:01;;;;;;;19.40;8.60;;;;;;;;;;6222927;23;20039;-92
2022/12/03 01:48:31;;;;;;;27.55;9.40;;;;;;;;;;6265224;23;20060;-93
2022/12/03 01:50:57;;;;;;;20.98;8.73;;;;;;;;;;6241156;23;20614;-92
2022/12/03 01:53:24;;;;;;;20.02;9.30;;;;;;;;;;6236872;23;20032;-92
2022/12/03 01:55:57;;;;;;;24.00;9.25;;;;;;;;;;6227744;23;20004;-92
2022/12/03 01:58:26;;;;;;;23.65;9.73;;;;;;;;;;6229475;23;20057;-93
2022/12/03 02:01:16;;;;;;;21.92;9.40;;;;;;;;;;6257139;23;20006;-92
2022/12/03 02:03:49;;;;;;;22.52;8.95;;;;;;;;;;6254850;23;20012;-92
2022/12/03 02:06:19;;;;;;;21.42;9.60;;;;;;;;;;6235881;23;20007;-92
2022/12/03 02:08:58;;;;;;;24.27;9.23;;;;;;;;;;6234457;23;20000;-91
2022/12/03 02:12:00;;;;;;;;;;;;;;;;;;;;;
2022/12/03 02:14:27;;;;;;;21.27;8.63;;;;;;;;;;6239159;23;20122;-92
2022/12/03 02:16:53;;;;;;;21.13;9.48;;;;;;;;;;6213443;23;20012;-92
2022/12/03 02:19:48;;;;;;;22.05;9.85;;;;;;;;;;6211973;23;20480;-92
2022/12/03 02:23:10;;;;;;;24.50;10.00;;;;;;;;;;6195261;22;20016;-92
2022/12/03 02:25:42;;;;;;;25.00;9.65;;;;;;;;;;6032100;23;20033;-92
2022/12/03 02:28:13;;;;;;;23.58;9.68;;;;;;;;;;6038092;23;20559;-92
2022/12/03 02:30:51;;;;;;;21.73;10.02;;;;;;;;;;6184037;23;20009;-92
2022/12/03 02:33:17;;;;;;;23.80;9.35;;;;;;;;;;6158354;23;20038;-92
2022/12/03 02:36:17;;;;;;;;;;;;;;;;;;;;;
2022/12/03 02:38:47;;;;;;;25.33;11.60;;;;;;;;;;6208619;23;20424;-92
2022/12/03 02:42:33;;;;;;;25.52;9.55;;;;;;;;;;6158493;23;20012;-93
2022/12/03 02:46:56;;;;;;;26.05;10.18;;;;;;;;;;6202619;23;20012;-92
2022/12/03 02:49:23;;;;;;;22.63;8.77;;;;;;;;;;6183004;23;20000;-93
2022/12/03 02:52:01;;;;;;;24.92;10.65;;;;;;;;;;6183881;23;20433;-92
2022/12/03 02:54:27;;;;;;;24.20;10.35;;;;;;;;;;6160460;23;20376;-92
2022/12/03 02:57:10;;;;;;;;;;;;;;;;;;;;;
2022/12/03 03:00:09;;;;;;;;;;;;;;;;;;;;;
2022/12/03 03:02:36;;;;;;;24.08;10.52;;;;;;;;;;6200581;23;20083;-92
2022/12/03 03:05:06;;;;;;;23.48;9.82;;;;;;;;;;6181144;23;20000;-92
2022/12/03 03:07:43;;;;;;;24.85;9.75;;;;;;;;;;6190385;23;20008;-92
2022/12/03 03:10:13;;;;;;;19.27;8.88;;;;;;;;;;6222398;23;20005;-92
2022/12/03 03:12:40;;;;;;;24.15;9.93;;;;;;;;;;6209352;23;20429;-93
2022/12/03 03:15:10;;;;;;;24.48;9.93;;;;;;;;;;6206365;23;20055;-92
2022/12/03 03:17:38;;;;;;;22.13;8.27;;;;;;;;;;6208989;23;20091;-93
2022/12/03 03:20:05;;;;;;;22.40;9.90;;;;;;;;;;6206222;23;20004;-92
2022/12/03 03:22:45;;;;;;;20.17;8.55;;;;;;;;;;6225385;22;20090;-93
2022/12/03 03:25:16;;;;;;;23.73;10.55;;;;;;;;;;6239362;23;20012;-92
2022/12/03 03:27:43;;;;;;;25.50;11.60;;;;;;;;;;6230788;23;20088;-93
2022/12/03 03:30:16;;;;;;;22.35;10.57;;;;;;;;;;6233266;23;20000;-93
2022/12/03 03:33:02;;;;;;;23.23;10.07;;;;;;;;;;6241683;23;20028;-91
2022/12/03 03:35:33;;;;;;;25.80;11.32;;;;;;;;;;6237616;23;20008;-92
2022/12/03 03:38:00;;;;;;;23.33;10.82;;;;;;;;;;6265066;23;20008;-93
2022/12/03 03:40:27;;;;;;;28.33;11.15;;;;;;;;;;6234995;23;20052;-92
2022/12/03 03:42:53;;;;;;;27.90;11.10;;;;;;;;;;6238157;23;20005;-92
2022/12/03 03:45:22;;;;;;;25.25;11.18;;;;;;;;;;6265295;23;20011;-92
2022/12/03 03:47:49;;;;;;;26.92;10.50;;;;;;;;;;6238669;23;20412;-92
2022/12/03 03:50:15;;;;;;;26.10;10.88;;;;;;;;;;6237733;23;20062;-91
2022/12/03 03:52:43;;;;;;;25.65;10.00;;;;;;;;;;6239759;23;20008;-90
2022/12/03 03:55:10;;;;;;;29.20;10.75;;;;;;;;;;6239427;23;20035;-90
2022/12/03 03:57:37;;;;;;;27.95;10.95;;;;;;;;;;6239076;23;20008;-90
2022/12/03 04:00:08;;;;;;;25.70;10.48;;;;;;;;;;6238850;23;20000;-90
2022/12/03 04:06:13;;;;;;;27.65;10.93;;;;;;;;;;6173727;23;20350;-91
2022/12/03 04:08:41;;;;;;;30.45;11.65;;;;;;;;;;6231011;23;20477;-90
2022/12/03 04:14:17;;;;;;;28.75;11.00;;;;;;;;;;6266915;23;20039;-92
2022/12/03 04:16:44;;;;;;;25.60;9.45;;;;;;;;;;6242006;23;20007;-92
2022/12/03 04:19:12;;;;;;;26.85;11.00;;;;;;;;;;6233847;23;20015;-92
2022/12/03 04:24:44;;;;;;;25.95;11.15;;;;;;;;;;6145580;23;20043;-91
2022/12/03 04:29:56;;;;;;;27.40;11.63;;;;;;;;;;6216476;23;20091;-91
2022/12/03 04:35:57;;;;;;;27.90;10.13;;;;;;;;;;6216873;23;20383;-91
2022/12/03 04:38:24;;;;;;;30.88;12.27;;;;;;;;;;6263400;23;20043;-92
2022/12/03 04:41:05;;;;;;;30.20;10.98;;;;;;;;;;6239569;23;20019;-92
2022/12/03 04:43:32;;;;;;;30.67;11.73;;;;;;;;;;6235697;23;20016;-92
2022/12/03 04:46:03;;;;;;;29.23;11.88;;;;;;;;;;6240855;23;20100;-91
2022/12/03 04:48:32;;;;;;;25.20;11.40;;;;;;;;;;6235429;23;20011;-92
2022/12/03 04:51:02;;;;;;;26.15;10.70;;;;;;;;;;6237519;23;20008;-92
2022/12/03 04:53:28;;;;;;;19.27;9.07;;;;;;;;;;6237295;23;20000;-92
2022/12/03 04:55:54;;;;;;;30.90;11.98;;;;;;;;;;6239548;23;20027;-92
2022/12/03 04:58:41;;;;;;;30.25;11.57;;;;;;;;;;6232441;23;20034;-91
2022/12/03 05:01:08;;;;;;;28.27;11.25;;;;;;;;;;6231488;23;20004;-92
2022/12/03 05:03:35;;;;;;;19.50;9.02;;;;;;;;;;6240304;23;20081;-92
2022/12/03 05:06:19;;;;;;;30.15;11.63;;;;;;;;;;6233857;23;20004;-92
2022/12/03 05:08:52;;;;;;;29.23;11.75;;;;;;;;;;6238102;23;20026;-91
2022/12/03 05:11:25;;;;;;;23.15;8.73;;;;;;;;;;6213767;23;20020;-92
2022/12/03 05:13:54;;;;;;;29.48;11.95;;;;;;;;;;6237635;23;20008;-92
2022/12/03 05:16:21;;;;;;;24.40;11.68;;;;;;;;;;6236208;23;20376;-91
2022/12/03 05:18:49;;;;;;;32.38;12.48;;;;;;;;;;6239153;23;20016;-91
2022/12/03 05:21:22;;;;;;;31.27;12.02;;;;;;;;;;6239136;23;20020;-91
2022/12/03 05:23:58;;;;;;;24.92;10.68;;;;;;;;;;6234524;22;20429;-91
2022/12/03 05:26:25;;;;;;;28.27;11.10;;;;;;;;;;6234571;23;20015;-92
2022/12/03 05:28:52;;;;;;;30.05;12.23;;;;;;;;;;6238733;23;20501;-92
2022/12/03 05:31:21;;;;;;;30.23;11.27;;;;;;;;;;6233170;23;20011;-91
2022/12/03 05:33:48;;;;;;;30.65;11.63;;;;;;;;;;6232580;23;20015;-92
2022/12/03 05:36:14;;;;;;;28.77;11.55;;;;;;;;;;6235888;23;20011;-91
2022/12/03 05:38:43;;;;;;;27.50;11.65;;;;;;;;;;6231540;23;20455;-91
2022/12/03 05:44:16;;;;;;;23.40;9.77;;;;;;;;;;6240695;23;20010;-92
2022/12/03 05:46:42;;;;;;;29.27;11.20;;;;;;;;;;6225958;23;20448;-91
2022/12/03 05:49:11;;;;;;;27.25;11.00;;;;;;;;;;6231375;23;20008;-91
2022/12/03 05:51:38;;;;;;;27.88;11.60;;;;;;;;;;6238192;23;20024;-92
2022/12/03 05:54:05;;;;;;;27.60;10.55;;;;;;;;;;6237978;23;20012;-92
2022/12/03 05:56:31;;;;;;;29.25;11.50;;;;;;;;;;6238203;23;20023;-92
2022/12/03 05:59:02;;;;;;;28.77;11.25;;;;;;;;;;6239596;23;20013;-92
2022/12/03 06:01:31;;;;;;;27.27;12.10;;;;;;;;;;6264280;23;20004;-91
2022/12/03 06:04:19;;;;;;;27.65;10.68;;;;;;;;;;6229020;23;20004;-92
2022/12/03 06:06:45;;;;;;;24.95;10.25;;;;;;;;;;6233464;23;20069;-92
2022/12/03 06:09:11;;;;;;;29.73;10.45;;;;;;;;;;6236790;23;20326;-91
2022/12/03 06:11:40;;;;;;;24.92;9.95;;;;;;;;;;6237310;23;20020;-92
2022/12/03 06:14:09;;;;;;;26.33;10.32;;;;;;;;;;6230133;23;20027;-92
2022/12/03 06:16:55;;;;;;;;;;;;;;;;;;;;;
2022/12/03 06:19:21;;;;;;;29.92;12.52;;;;;;;;;;6226773;23;20116;-92
2022/12/03 06:21:49;;;;;;;27.35;10.38;;;;;;;;;;6236403;22;20213;-92
2022/12/03 06:24:32;;;;;;;28.98;11.18;;;;;;;;;;6238848;22;20008;-91
2022/12/03 06:27:11;;;;;;;28.90;10.18;;;;;;;;;;6192227;23;20115;-92
2022/12/03 06:32:36;;;;;;;24.27;9.95;;;;;;;;;;6202532;23;20411;-92
2022/12/03 06:35:02;;;;;;;29.02;11.25;;;;;;;;;;6189424;23;20562;-92
2022/12/03 06:37:32;;;;;;;32.30;10.98;;;;;;;;;;6214224;23;20031;-91
2022/12/03 06:40:18;;;;;;;24.73;9.93;;;;;;;;;;6213493;23;20082;-92
2022/12/03 06:42:44;;;;;;;;;;;;;;;;;;6212543;23;20005;-92
2022/12/03 06:45:10;;;;;;;29.17;10.82;;;;;;;;;;6212708;23;19945;-91
2022/12/03 06:47:41;;;;;;;25.60;10.02;;;;;;;;;;6213911;23;20012;-92
2022/12/03 06:50:10;;;;;;;30.75;10.68;;;;;;;;;;6211828;23;20119;-92
2022/12/03 06:52:36;;;;;;;24.08;10.82;;;;;;;;;;6211915;23;20015;-91
2022/12/03 06:55:09;;;;;;;27.55;10.80;;;;;;;;;;6211474;23;20532;-92
2022/12/03 06:57:35;;;;;;;28.05;11.20;;;;;;;;;;6211455;23;20141;-91
2022/12/03 07:00:15;;;;;;;;;;;;;;;;;;;;;
2022/12/03 07:02:43;;;;;;;28.02;10.85;;;;;;;;;;6238575;23;20100;-91
2022/12/03 07:05:12;;;;;;;25.67;9.95;;;;;;;;;;6212717;23;20054;-91
2022/12/03 07:07:38;;;;;;;25.17;10.18;;;;;;;;;;6213378;23;20019;-91
2022/12/03 07:10:07;;;;;;;33.40;11.98;;;;;;;;;;6212326;23;20087;-91
2022/12/03 07:12:33;;;;;;;27.52;10.85;;;;;;;;;;6212001;23;20087;-91
2022/12/03 07:14:59;;;;;;;26.48;9.50;;;;;;;;;;6213177;23;20027;-91
2022/12/03 07:17:25;;;;;;;34.00;13.55;;;;;;;;;;6211867;23;20008;-91
2022/12/03 07:19:58;;;;;;;23.52;10.20;;;;;;;;;;6212299;23;20397;-92
2022/12/03 07:22:30;;;;;;;28.25;8.98;;;;;;;;;;6212683;22;20042;-91
2022/12/03 07:25:03;;;;;;;32.50;11.57;;;;;;;;;;6185667;23;20083;-93
2022/12/03 07:27:32;;;;;;;21.08;8.77;;;;;;;;;;6213164;23;20475;-91
2022/12/03 07:29:59;;;;;;;27.15;10.27;;;;;;;;;;6211706;23;20066;-92
2022/12/03 07:32:31;;;;;;;28.05;11.55;;;;;;;;;;6211289;23;20445;-92
2022/12/03 07:34:57;;;;;;;24.88;11.18;;;;;;;;;;6210896;23;20111;-93
2022/12/03 07:37:23;;;;;;;30.08;11.60;;;;;;;;;;6212900;23;20073;-92
2022/12/03 07:39:51;;;;;;;24.52;9.48;;;;;;;;;;6212072;23;20004;-91
2022/12/03 07:42:22;;;;;;;23.45;9.60;;;;;;;;;;6188904;23;20004;-92
2022/12/03 07:44:48;;;;;;;26.83;10.48;;;;;;;;;;6211978;23;20004;-92
2022/12/03 07:47:28;;;;;;;33.00;11.45;;;;;;;;;;6214246;23;20102;-91
2022/12/03 07:50:02;;;;;;;24.13;10.13;;;;;;;;;;6211413;23;20054;-92
2022/12/03 07:52:49;;;;;;;26.20;10.35;;;;;;;;;;6219469;23;20012;-92
2022/12/03 07:55:15;;;;;;;22.67;7.60;;;;;;;;;;6212225;23;20436;-92
2022/12/03 07:57:42;;;;;;;26.90;10.82;;;;;;;;;;6211020;23;20004;-92
2022/12/03 08:00:18;;;;;;;28.02;9.80;;;;;;;;;;6212363;23;20015;-92
2022/12/03 08:03:10;;;;;;;29.85;10.00;;;;;;;;;;6212171;23;20004;-92
2022/12/03 08:05:36;;;;;;;23.38;9.00;;;;;;;;;;6186792;23;20090;-91
2022/12/03 08:08:05;;;;;;;28.48;9.25;;;;;;;;;;6212671;23;20591;-91
2022/12/03 08:10:31;;;;;;;25.02;9.93;;;;;;;;;;6211805;23;20023;-92
2022/12/03 08:12:58;;;;;;;26.98;10.27;;;;;;;;;;6211794;23;20015;-92
2022/12/03 08:15:41;;;;;;;;;;;;;;;;;;;;;
2022/12/03 08:18:13;;;;;;;18.13;6.70;;;;;;;;;;6241778;23;20015;-92
2022/12/03 08:20:40;;;;;;;23.20;8.70;;;;;;;;;;6212791;23;20023;-92
2022/12/03 08:23:38;;;;;;;;;;;;;;;;;;;;;
2022/12/03 08:26:17;;;;;;;25.67;9.30;;;;;;;;;;6241328;23;20084;-92
2022/12/03 08:28:43;;;;;;;30.73;10.70;;;;;;;;;;6213501;23;20091;-91
2022/12/03 08:31:11;;;;;;;27.98;11.85;;;;;;;;;;6215034;23;20008;-91
2022/12/03 08:33:37;;;;;;;25.42;10.00;;;;;;;;;;6212892;23;20008;-92
2022/12/03 08:36:33;;;;;;;27.42;11.48;;;;;;;;;;6214101;23;20012;-93
2022/12/03 08:39:15;;;;;;;35.47;10.95;;;;;;;;;;6194663;23;20440;-92
2022/12/03 08:44:37;;;;;;;27.35;10.52;;;;;;;;;;6218482;23;20545;-93
2022/12/03 08:47:08;;;;;;;32.97;11.32;;;;;;;;;;6214352;23;20061;-92
2022/12/03 08:49:39;;;;;;;22.08;8.95;;;;;;;;;;6212342;23;20012;-92
2022/12/03 08:52:29;;;;;;;33.03;12.32;;;;;;;;;;6185719;23;20082;-92
2022/12/03 08:54:56;;;;;;;30.65;10.93;;;;;;;;;;6211613;23;20110;-92
2022/12/03 08:57:42;;;;;;;;;;;;;;;;;;;;;
2022/12/03 09:00:11;;;;;;;33.85;13.93;;;;;;;;;;6239988;23;20281;-92
2022/12/03 09:02:44;;;;;;;19.00;7.65;;;;;;;;;;6212119;23;20004;-92
2022/12/03 09:05:16;;;;;;;28.83;12.15;;;;;;;;;;6213979;23;20087;-91
2022/12/03 09:07:42;;;;;;;30.95;12.65;;;;;;;;;;6212816;23;20070;-92
2022/12/03 09:10:33;;;;;;;38.35;12.52;;;;;;;;;;6213199;23;20021;-92
2022/12/03 09:13:01;;;;;;;33.72;11.93;;;;;;;;;;6215265;23;20040;-92
2022/12/03 09:15:30;;;;;;;32.15;13.35;;;;;;;;;;6214323;23;20016;-92
2022/12/03 09:18:10;;;;;;;35.92;12.88;;;;;;;;;;6214720;23;20015;-92
2022/12/03 09:20:38;;;;;;;35.47;12.20;;;;;;;;;;6212607;23;20050;-92
2022/12/03 09:23:04;;;;;;;34.28;12.23;;;;;;;;;;6214131;22;20154;-92
2022/12/03 09:25:41;;;;;;;29.15;12.25;;;;;;;;;;6213076;23;20011;-92
2022/12/03 09:30:59;;;;;;;38.22;12.95;;;;;;;;;;6219172;23;20433;-92
2022/12/03 09:33:25;;;;;;;46.15;14.18;;;;;;;;;;6212683;23;20498;-92
2022/12/03 09:36:02;;;;;;;31.48;13.70;;;;;;;;;;6214044;23;20022;-92
2022/12/03 09:38:33;;;;;;;30.42;11.57;;;;;;;;;;6213914;23;20004;-91
2022/12/03 09:41:04;;;;;;;30.05;12.35;;;;;;;;;;6213576;23;20495;-91
2022/12/03 09:43:42;;;;;;;37.35;12.43;;;;;;;;;;6212833;23;20638;-92
2022/12/03 09:46:21;;;;;;;30.92;12.88;;;;;;;;;;6213110;23;20008;-91
2022/12/03 09:48:58;;;;;;;33.78;12.57;;;;;;;;;;6213912;23;20043;-91
2022/12/03 09:51:41;;;;;;;33.55;11.50;;;;;;;;;;6214532;23;20012;-92
2022/12/03 09:54:15;;;;;;;37.47;12.35;;;;;;;;;;6213182;23;20004;-92
2022/12/03 09:56:44;;;;;;;37.38;13.50;;;;;;;;;;6213141;23;20035;-93
2022/12/03 09:59:14;;;;;;;35.90;12.82;;;;;;;;;;6213934;23;20023;-91
2022/12/03 10:01:46;;;;;;;26.45;10.57;;;;;;;;;;6212890;23;20008;-92
2022/12/03 10:04:17;;;;;;;36.10;13.98;;;;;;;;;;6212003;23;20448;-92
2022/12/03 10:06:46;;;;;;;33.97;12.25;;;;;;;;;;6213474;23;20174;-92
2022/12/03 10:09:21;;;;;;;36.17;13.30;;;;;;;;;;6213328;23;20058;-92
2022/12/03 10:12:18;;;;;;;;;;;;;;;;;;;;;
2022/12/03 10:14:48;;;;;;;29.05;11.43;;;;;;;;;;6217121;23;20091;-92
2022/12/03 10:17:21;;;;;;;26.98;10.70;;;;;;;;;;6212673;23;20008;-92
2022/12/03 10:19:50;;;;;;;30.73;12.55;;;;;;;;;;6212975;23;20051;-92
2022/12/03 10:22:27;;;;;;;36.80;12.38;;;;;;;;;;6212611;23;20031;-92
2022/12/03 10:25:05;;;;;;;26.80;10.45;;;;;;;;;;6213209;22;20341;-92
2022/12/03 10:27:33;;;;;;;37.53;12.40;;;;;;;;;;6213919;23;20069;-91
2022/12/03 10:33:01;;;;;;;34.60;11.27;;;;;;;;;;6240309;23;20070;-91
2022/12/03 10:38:43;;;;;;;31.02;11.00;;;;;;;;;;6220139;23;20008;-92
2022/12/03 10:45:00;;;;;;;36.20;12.20;;;;;;;;;;6115961;23;20020;-92
2022/12/03 10:50:34;;;;;;;33.20;12.98;;;;;;;;;;6239097;23;20011;-92
2022/12/03 10:53:03;;;;;;;27.58;11.18;;;;;;;;;;6239813;23;20008;-92
2022/12/03 10:56:01;;;;;;;30.00;11.38;;;;;;;;;;6212478;23;20500;-92
2022/12/03 10:58:33;;;;;;;26.15;9.68;;;;;;;;;;6211402;23;20015;-92
2022/12/03 11:01:02;;;;;;;35.35;12.98;;;;;;;;;;6211777;23;20377;-91
2022/12/03 11:03:33;;;;;;;32.80;12.13;;;;;;;;;;6210310;23;20007;-92
2022/12/03 11:06:46;;;;;;;35.72;13.48;;;;;;;;;;6209995;23;20013;-91
2022/12/03 11:09:18;;;;;;;35.83;13.30;;;;;;;;;;6202642;23;20560;-91
2022/12/03 11:12:36;;;;;;;;;;;;;;;;;;;;;
2022/12/03 11:15:09;;;;;;;36.45;10.00;;;;;;;;;;6238568;23;20390;-93
2022/12/03 11:17:44;;;;;;;35.67;13.05;;;;;;;;;;6187513;23;20016;-92
2022/12/03 11:20:13;;;;;;;33.27;13.43;;;;;;;;;;6211652;23;20376;-93
2022/12/03 11:23:00;;;;;;;37.70;12.90;;;;;;;;;;6211664;23;20289;-92
2022/12/03 11:25:38;;;;;;;28.83;11.77;;;;;;;;;;6179699;23;20048;-92
2022/12/03 11:28:16;;;;;;;36.67;13.73;;;;;;;;;;6183247;23;20005;-92
2022/12/03 11:34:38;;;;;;;;;;;;;;;;;;;;;
2022/12/03 11:37:23;;;;;;;;;;;;;;;;;;;;;
2022/12/03 11:40:22;;;;;;;25.15;11.55;;;;;;;;;;6206576;23;20087;-92
2022/12/03 11:42:51;;;;;;;29.58;12.10;;;;;;;;;;6102030;23;20008;-92
2022/12/03 11:45:38;;;;;;;32.08;11.57;;;;;;;;;;6208708;23;19997;-91
2022/12/03 11:48:12;;;;;;;43.72;13.65;;;;;;;;;;6157746;23;20013;-92
2022/12/03 11:50:52;;;;;;;;;;;;;;;;;;;;;
2022/12/03 11:53:25;;;;;;;31.30;12.23;;;;;;;;;;6207775;23;20079;-93
2022/12/03 11:56:12;;;;;;;37.85;11.98;;;;;;;;;;6207384;23;20036;-93
2022/12/03 11:58:46;;;;;;;;;;;;;;;;;;6207718;23;20008;-93
2022/12/03 12:01:13;;;;;;;35.63;13.23;;;;;;;;;;6180872;23;19907;-93
2022/12/03 12:06:55;;;;;;;36.70;12.50;;;;;;;;;;6208348;23;20043;-93
2022/12/03 12:13:19;;;;;;;39.75;14.07;;;;;;;;;;6204573;23;20015;-93
2022/12/03 12:15:51;;;;;;;32.72;13.68;;;;;;;;;;6069017;23;20009;-93
2022/12/03 12:18:45;;;;;;;36.60;14.02;;;;;;;;;;6208682;23;20492;-91
2022/12/03 12:21:42;;;;;;;35.42;13.75;;;;;;;;;;6211582;23;20009;-92
2022/12/03 12:25:05;;;;;;;37.40;12.40;;;;;;;;;;6219247;22;20012;-94
2022/12/03 12:31:04;;;;;;;38.35;14.07;;;;;;;;;;6152598;23;20088;-93
2022/12/03 12:33:41;;;;;;;37.70;12.80;;;;;;;;;;6118757;23;20174;-92
2022/12/03 12:36:42;;;;;;;33.00;12.73;;;;;;;;;;6182385;23;20019;-91
2022/12/03 12:39:43;;;;;;;;;;;;;;;;;;;;;
2022/12/03 12:42:37;;;;;;;38.15;14.55;;;;;;;;;;6214936;23;20083;-91
2022/12/03 12:45:06;;;;;;;29.48;12.95;;;;;;;;;;6212949;23;20015;-92
2022/12/03 12:47:38;;;;;;;31.60;11.80;;;;;;;;;;6214087;23;20352;-91
2022/12/03 12:50:10;;;;;;;41.15;13.88;;;;;;;;;;6213564;23;20008;-92
2022/12/03 12:52:41;;;;;;;37.42;14.18;;;;;;;;;;6214548;23;20008;-91
2022/12/03 12:55:09;;;;;;;40.35;14.23;;;;;;;;;;6213728;23;20012;-91
2022/12/03 12:57:35;;;;;;;34.67;12.77;;;;;;;;;;6215033;23;20008;-91
2022/12/03 13:00:26;;;;;;;36.53;14.68;;;;;;;;;;6214389;23;20083;-92
2022/12/03 13:02:54;;;;;;;30.15;12.27;;;;;;;;;;6217067;23;20032;-92
2022/12/03 13:05:27;;;;;;;30.02;9.98;;;;;;;;;;6217644;23;20000;-91
2022/12/03 13:07:54;;;;;;;32.05;12.18;;;;;;;;;;6217151;23;20008;-92
2022/12/03 13:10:39;;;;;;;35.22;13.00;;;;;;;;;;6218195;23;20087;-91
2022/12/03 13:13:14;;;;;;;44.78;14.93;;;;;;;;;;6216752;23;20050;-92
2022/12/03 13:15:50;;;;;;;35.17;13.35;;;;;;;;;;6215501;23;20042;-91
2022/12/03 13:18:21;;;;;;;44.72;13.40;;;;;;;;;;6216701;23;20689;-91
2022/12/03 13:20:48;;;;;;;32.33;10.77;;;;;;;;;;6215023;23;20028;-92
2022/12/03 13:23:33;;;;;;;37.45;12.27;;;;;;;;;;6216635;23;20831;-92
2022/12/03 13:26:33;;;;;;;28.45;12.77;;;;;;;;;;6216001;22;20043;-92
2022/12/03 13:29:02;;;;;;;28.50;10.80;;;;;;;;;;6200803;23;20507;-92
2022/12/03 13:31:30;;;;;;;38.53;14.27;;;;;;;;;;6214391;23;20498;-91
2022/12/03 13:33:57;;;;;;;43.88;14.73;;;;;;;;;;6212385;23;20008;-90
2022/12/03 13:36:28;;;;;;;35.33;12.20;;;;;;;;;;6212632;23;20008;-91
2022/12/03 13:38:55;;;;;;;40.33;15.98;;;;;;;;;;6212744;23;20062;-92
2022/12/03 13:44:16;;;;;;;43.03;13.13;;;;;;;;;;6216713;23;20078;-92
2022/12/03 13:46:42;;;;;;;40.92;14.60;;;;;;;;;;6210418;23;20008;-91
2022/12/03 13:49:40;;;;;;;38.50;13.65;;;;;;;;;;6210913;23;20383;-91
2022/12/03 13:52:12;;;;;;;40.55;14.40;;;;;;;;;;6211397;23;20429;-92
2022/12/03 13:54:38;;;;;;;39.88;14.18;;;;;;;;;;6212092;23;20047;-92
2022/12/03 13:57:05;;;;;;;31.13;11.02;;;;;;;;;;6212772;23;20095;-92
2022/12/03 13:59:34;;;;;;;36.60;12.63;;;;;;;;;;6210926;23;20082;-92
2022/12/03 14:02:00;;;;;;;32.63;10.50;;;;;;;;;;6212697;23;20629;-92
2022/12/03 14:04:26;;;;;;;35.15;12.38;;;;;;;;;;6210552;23;20040;-92
2022/12/03 14:06:52;;;;;;;36.05;12.63;;;;;;;;;;6213719;23;20011;-92
2022/12/03 14:09:26;;;;;;;32.33;13.32;;;;;;;;;;6212755;23;20004;-92
2022/12/03 14:14:52;;;;;;;40.25;13.98;;;;;;;;;;6238673;23;20034;-92
2022/12/03 14:17:34;;;;;;;39.53;13.25;;;;;;;;;;6212847;23;20012;-92
2022/12/03 14:20:08;;;;;;;33.35;13.68;;;;;;;;;;6211208;23;20324;-92
2022/12/03 14:22:36;;;;;;;38.15;12.57;;;;;;;;;;6212742;23;20059;-92
2022/12/03 14:25:03;;;;;;;46.55;15.70;;;;;;;;;;6213714;22;20021;-92
2022/12/03 14:27:29;;;;;;;38.47;13.45;;;;;;;;;;6213098;23;20008;-93
2022/12/03 14:29:59;;;;;;;42.88;15.10;;;;;;;;;;6213065;23;20015;-92
2022/12/03 14:32:27;;;;;;;42.20;14.40;;;;;;;;;;6212656;23;20016;-92
2022/12/03 14:35:01;;;;;;;38.28;14.40;;;;;;;;;;6212295;23;20622;-92
2022/12/03 14:37:32;;;;;;;36.92;15.20;;;;;;;;;;6212444;23;20321;-92
2022/12/03 14:40:02;;;;;;;43.63;15.32;;;;;;;;;;6213093;23;20008;-92
2022/12/03 14:42:36;;;;;;;36.50;15.30;;;;;;;;;;6211715;23;20007;-92
2022/12/03 14:45:02;;;;;;;27.50;9.88;;;;;;;;;;6213150;23;20034;-92
2022/12/03 14:47:28;;;;;;;41.40;14.68;;;;;;;;;;6211642;23;20010;-92
2022/12/03 14:49:57;;;;;;;32.42;13.57;;;;;;;;;;6211807;23;20011;-92
2022/12/03 14:52:23;;;;;;;40.35;14.15;;;;;;;;;;6213290;23;20031;-92
2022/12/03 14:55:01;;;;;;;31.15;13.57;;;;;;;;;;6211802;23;20023;-92
2022/12/03 14:57:38;;;;;;;46.88;17.10;;;;;;;;;;6211698;23;20034;-92
2022/12/03 15:00:06;;;;;;;33.42;11.65;;;;;;;;;;6212791;23;20437;-92
2022/12/03 15:02:34;;;;;;;41.33;15.50;;;;;;;;;;6211997;23;20328;-92
2022/12/03 15:05:00;;;;;;;41.95;16.17;;;;;;;;;;6212235;23;20388;-92
2022/12/03 15:07:30;;;;;;;37.88;13.55;;;;;;;;;;6213000;23;20429;-91
2022/12/03 15:09:56;;;;;;;39.83;16.60;;;;;;;;;;6214334;23;20049;-93
2022/12/03 15:12:25;;;;;;;42.60;15.25;;;;;;;;;;6210936;23;20095;-92
2022/12/03 15:14:54;;;;;;;32.05;13.02;;;;;;;;;;6211779;23;20465;-92
2022/12/03 15:17:20;;;;;;;29.98;11.43;;;;;;;;;;6211811;23;20015;-92
2022/12/03 15:19:46;;;;;;;39.65;14.75;;;;;;;;;;6210933;23;20012;-91
2022/12/03 15:22:14;;;;;;;39.80;15.18;;;;;;;;;;6211654;23;20107;-92
2022/12/03 15:24:43;;;;;;;43.22;15.77;;;;;;;;;;6218629;22;20008;-92
2022/12/03 15:27:16;;;;;;;36.17;13.40;;;;;;;;;;6217380;22;20452;-92
2022/12/03 15:29:42;;;;;;;38.67;14.10;;;;;;;;;;6214829;23;20019;-92
2022/12/03 15:32:14;;;;;;;52.33;17.85;;;;;;;;;;6210982;23;20016;-92
2022/12/03 15:34:43;;;;;;;50.22;15.85;;;;;;;;;;6212569;23;20016;-93
2022/12/03 15:37:13;;;;;;;41.03;15.75;;;;;;;;;;6211526;23;20429;-92
2022/12/03 15:39:42;;;;;;;56.25;18.30;;;;;;;;;;6212923;23;20008;-92
2022/12/03 15:42:13;;;;;;;42.58;14.80;;;;;;;;;;6211916;23;20083;-92
2022/12/03 15:44:42;;;;;;;35.03;13.90;;;;;;;;;;6210554;23;20035;-92
2022/12/03 15:47:08;;;;;;;48.47;16.40;;;;;;;;;;6212991;23;20077;-92
2022/12/03 15:49:34;;;;;;;39.47;15.32;;;;;;;;;;6210418;23;20008;-92
2022/12/03 15:52:10;;;;;;;40.00;14.65;;;;;;;;;;6213467;23;20082;-92
2022/12/03 15:54:37;;;;;;;39.78;14.82;;;;;;;;;;6211874;23;20012;-92
2022/12/03 15:57:12;;;;;;;37.13;14.90;;;;;;;;;;6210880;23;20012;-92
2022/12/03 15:59:38;;;;;;;;;;;;;;;;;;6210602;23;20008;-92
2022/12/03 16:02:12;;;;;;;36.88;10.93;;;;;;;;;;6212102;23;19899;-92
2022/12/03 16:04:41;;;;;;;41.20;14.52;;;;;;;;;;6216279;23;20012;-92
2022/12/03 16:07:08;;;;;;;40.70;14.68;;;;;;;;;;6212381;23;20019;-92
2022/12/03 16:09:34;;;;;;;38.15;14.52;;;;;;;;;;6211413;23;20010;-92
2022/12/03 16:12:07;;;;;;;38.15;15.30;;;;;;;;;;6211717;23;20008;-92
2022/12/03 16:14:33;;;;;;;38.35;15.70;;;;;;;;;;6211249;23;20310;-92
2022/12/03 16:17:00;;;;;;;50.47;16.50;;;;;;;;;;6208968;23;20008;-92